Time;durP1;ratioP1;P1;durP2;ratioP2;P2;SDS_P1;SDS_P2;PMS_P1;PMS_P2;Temp;Humidity;BMP_temperature;BMP_pressure;BME280_temperature;BME280_humidity;BME280_pressure;Samples;Min_cycle;Max_cycle;Signal;HPM_P1;HPM_P2
2022/03/17 00:01:11;;;;;;;79.93;36.65;;;;;;;;;;8369603;28;20416;-77
2022/03/17 00:05:14;;;;;;;98.30;37.90;;;;;;;;;;8369641;28;20064;-77
2022/03/17 00:09:18;;;;;;;59.53;27.58;;;;;;;;;;8366249;28;20100;-77
2022/03/17 00:13:21;;;;;;;97.80;42.90;;;;;;;;;;8366037;28;20068;-77
2022/03/17 00:17:25;;;;;;;94.40;39.85;;;;;;;;;;8371275;28;20052;-78
2022/03/17 00:21:28;;;;;;;96.55;40.33;;;;;;;;;;8401587;28;20510;-76
2022/03/17 00:25:32;;;;;;;90.70;39.13;;;;;;;;;;8401445;28;20049;-77
2022/03/17 00:29:35;;;;;;;94.85;37.80;;;;;;;;;;8401168;28;20100;-77
2022/03/17 00:33:37;;;;;;;91.72;37.17;;;;;;;;;;8400985;28;20051;-77
2022/03/17 00:37:39;;;;;;;;;;;;;;;;;;8401074;28;20139;-78
2022/03/17 00:41:44;;;;;;;96.30;38.65;;;;;;;;;;8400992;28;19950;-77
2022/03/17 00:45:48;;;;;;;92.57;36.20;;;;;;;;;;8401118;28;20063;-77
2022/03/17 00:49:50;;;;;;;87.13;37.40;;;;;;;;;;8400934;28;20040;-77
2022/03/17 00:53:53;;;;;;;91.43;38.60;;;;;;;;;;8401014;28;20396;-77
2022/03/17 00:57:58;;;;;;;87.38;37.70;;;;;;;;;;8400806;28;20048;-77
2022/03/17 01:02:00;;;;;;;85.80;36.45;;;;;;;;;;8400174;28;20102;-77
2022/03/17 01:06:03;;;;;;;83.72;35.42;;;;;;;;;;8400105;28;20052;-78
2022/03/17 01:10:05;;;;;;;;;;;;;;;;;;8400615;28;20547;-77
2022/03/17 01:14:10;;;;;;;77.80;32.50;;;;;;;;;;8400050;28;19920;-77
2022/03/17 01:18:12;;;;;;;79.38;33.50;;;;;;;;;;8400184;28;20064;-78
2022/03/17 01:22:15;;;;;;;95.13;36.38;;;;;;;;;;8400491;28;20040;-77
2022/03/17 01:26:18;;;;;;;84.43;35.33;;;;;;;;;;8400011;28;20055;-77
2022/03/17 01:30:22;;;;;;;80.55;33.92;;;;;;;;;;8400211;28;20399;-77
2022/03/17 01:34:24;;;;;;;85.82;36.70;;;;;;;;;;8399709;28;20041;-77
2022/03/17 01:38:27;;;;;;;88.57;35.83;;;;;;;;;;8399578;28;20063;-77
2022/03/17 01:42:29;;;;;;;85.72;36.72;;;;;;;;;;8400164;28;20043;-78
2022/03/17 01:47:26;;;;;;;84.28;36.33;;;;;;;;;;8399370;28;20052;-77
2022/03/17 01:50:57;;;;;;;90.57;37.15;;;;;;;;;;8398446;28;20055;-76
2022/03/17 01:55:00;;;;;;;89.22;35.85;;;;;;;;;;8399302;28;20404;-77
2022/03/17 01:59:03;;;;;;;85.30;35.85;;;;;;;;;;8398927;28;20071;-77
2022/03/17 02:03:08;;;;;;;82.78;34.53;;;;;;;;;;8399072;28;20043;-77
2022/03/17 02:07:13;;;;;;;76.45;35.75;;;;;;;;;;8398920;28;20411;-77
2022/03/17 02:15:36;;;;;;;72.00;30.55;;;;;;;;;;8397853;28;20502;-78
2022/03/17 02:19:40;;;;;;;82.07;34.55;;;;;;;;;;8395496;28;20052;-78
2022/03/17 02:28:06;;;;;;;81.35;32.85;;;;;;;;;;8364902;28;20052;-77
2022/03/17 02:32:09;;;;;;;85.38;32.47;;;;;;;;;;8364783;28;20081;-77
2022/03/17 02:36:12;;;;;;;92.60;36.10;;;;;;;;;;8395690;28;20052;-78
2022/03/17 02:40:16;;;;;;;87.47;34.40;;;;;;;;;;8397751;28;20404;-77
2022/03/17 02:44:19;;;;;;;88.85;35.85;;;;;;;;;;8379883;28;20049;-77
2022/03/17 02:48:21;;;;;;;78.43;33.15;;;;;;;;;;8371119;28;20049;-78
2022/03/17 02:52:25;;;;;;;84.00;33.95;;;;;;;;;;8383395;28;20104;-77
2022/03/17 02:56:29;;;;;;;89.55;36.03;;;;;;;;;;8415441;28;20041;-77
2022/03/17 03:00:32;;;;;;;79.18;35.20;;;;;;;;;;8416568;28;20055;-77
2022/03/17 03:04:34;;;;;;;81.20;34.40;;;;;;;;;;8413415;28;20055;-79
2022/03/17 03:08:37;;;;;;;96.03;34.70;;;;;;;;;;8397315;28;20047;-78
2022/03/17 03:12:41;;;;;;;77.00;32.08;;;;;;;;;;8396834;28;20074;-77
2022/03/17 03:16:43;;;;;;;90.03;35.75;;;;;;;;;;8397265;28;20052;-77
2022/03/17 03:20:46;;;;;;;91.20;35.22;;;;;;;;;;8396428;28;20055;-77
2022/03/17 03:24:49;;;;;;;80.35;33.17;;;;;;;;;;8397048;28;20506;-77
2022/03/17 03:28:54;;;;;;;84.88;35.50;;;;;;;;;;8397091;28;20045;-78
2022/03/17 03:32:56;;;;;;;81.32;34.90;;;;;;;;;;8396300;28;20086;-78
2022/03/17 03:41:19;;;;;;;89.35;35.67;;;;;;;;;;8396132;28;20049;-77
2022/03/17 03:45:23;;;;;;;88.95;35.88;;;;;;;;;;8396544;28;20111;-77
2022/03/17 03:49:25;;;;;;;91.53;35.35;;;;;;;;;;8396382;28;20408;-77
2022/03/17 03:54:12;;;;;;;81.43;34.63;;;;;;;;;;8390756;28;20051;-77
2022/03/17 03:57:51;;;;;;;92.82;36.10;;;;;;;;;;8381294;28;20076;-78
2022/03/17 04:01:56;;;;;;;90.10;34.55;;;;;;;;;;8382772;28;20068;-78
2022/03/17 04:06:00;;;;;;;88.40;34.92;;;;;;;;;;8388154;28;20045;-77
2022/03/17 04:10:02;;;;;;;91.53;34.10;;;;;;;;;;8362929;28;20500;-77
2022/03/17 04:14:05;;;;;;;83.88;33.85;;;;;;;;;;8375617;28;20041;-77
2022/03/17 04:18:10;;;;;;;85.30;31.90;;;;;;;;;;8378870;28;20056;-78
2022/03/17 04:22:12;;;;;;;92.88;36.78;;;;;;;;;;8401389;28;20048;-78
2022/03/17 04:26:15;;;;;;;89.70;34.80;;;;;;;;;;8401017;28;20052;-76
2022/03/17 04:30:18;;;;;;;87.50;36.42;;;;;;;;;;8401543;28;20057;-76
2022/03/17 04:34:21;;;;;;;90.10;34.88;;;;;;;;;;8392953;28;20052;-78
2022/03/17 04:38:25;;;;;;;95.35;36.63;;;;;;;;;;8401494;28;20054;-77
2022/03/17 04:42:27;;;;;;;93.88;34.55;;;;;;;;;;8401199;28;20415;-77
2022/03/17 04:46:30;;;;;;;93.63;33.15;;;;;;;;;;8400723;28;20051;-77
2022/03/17 04:50:34;;;;;;;101.78;36.05;;;;;;;;;;8400598;28;20068;-77
2022/03/17 04:54:37;;;;;;;95.57;36.45;;;;;;;;;;8400866;28;20396;-77
2022/03/17 04:58:41;;;;;;;85.97;36.05;;;;;;;;;;8400320;28;20087;-77
2022/03/17 05:02:44;;;;;;;103.30;41.15;;;;;;;;;;8400493;28;20067;-78
2022/03/17 05:06:48;;;;;;;111.43;43.20;;;;;;;;;;8400153;28;20049;-78
2022/03/17 05:10:52;;;;;;;163.00;51.95;;;;;;;;;;8399918;28;20064;-79
2022/03/17 05:14:55;;;;;;;226.43;60.60;;;;;;;;;;8399904;28;20472;-77
2022/03/17 05:18:57;;;;;;;120.38;44.35;;;;;;;;;;8399533;28;20136;-78
2022/03/17 05:23:04;;;;;;;127.47;43.35;;;;;;;;;;8398873;28;20045;-78
2022/03/17 05:27:06;;;;;;;92.18;37.55;;;;;;;;;;8399336;28;20048;-77
2022/03/17 05:31:09;;;;;;;92.80;37.47;;;;;;;;;;8399969;28;20041;-78
2022/03/17 05:35:12;;;;;;;139.13;47.65;;;;;;;;;;8390405;28;20404;-78
2022/03/17 05:39:16;;;;;;;113.63;45.08;;;;;;;;;;8397428;28;20427;-77
2022/03/17 05:43:19;;;;;;;99.32;37.78;;;;;;;;;;8398583;28;20040;-77
2022/03/17 05:47:21;;;;;;;123.95;49.40;;;;;;;;;;8399086;28;20143;-78
2022/03/17 05:51:24;;;;;;;104.82;40.25;;;;;;;;;;8398473;28;20055;-76
2022/03/17 05:55:28;;;;;;;88.35;36.15;;;;;;;;;;8398242;28;20098;-78
2022/03/17 05:59:31;;;;;;;85.15;35.83;;;;;;;;;;8398607;28;20192;-76
2022/03/17 06:03:34;;;;;;;83.75;33.67;;;;;;;;;;8398118;28;20093;-78
2022/03/17 06:07:38;;;;;;;80.32;34.97;;;;;;;;;;8398038;28;20048;-77
2022/03/17 06:11:42;;;;;;;87.75;35.17;;;;;;;;;;8398333;28;20080;-77
2022/03/17 06:15:45;;;;;;;98.55;36.88;;;;;;;;;;8397768;28;20044;-77
2022/03/17 06:19:47;;;;;;;82.88;35.63;;;;;;;;;;8397645;28;20515;-77
2022/03/17 06:23:51;;;;;;;75.05;32.63;;;;;;;;;;8397476;28;20476;-78
2022/03/17 06:27:55;;;;;;;72.82;33.83;;;;;;;;;;8397225;28;20128;-76
2022/03/17 06:31:58;;;;;;;68.85;32.13;;;;;;;;;;8366081;28;20055;-77
2022/03/17 06:36:01;;;;;;;59.60;30.67;;;;;;;;;;8361288;28;20049;-78
2022/03/17 06:40:05;;;;;;;73.68;32.08;;;;;;;;;;8364709;28;20476;-77
2022/03/17 06:44:09;;;;;;;72.55;34.55;;;;;;;;;;8363946;28;20049;-78
2022/03/17 06:48:12;;;;;;;53.67;26.85;;;;;;;;;;8363866;28;20126;-77
2022/03/17 06:52:15;;;;;;;50.22;25.90;;;;;;;;;;8364054;28;20447;-76
2022/03/17 06:56:17;;;;;;;43.10;24.75;;;;;;;;;;8363997;28;20056;-77
2022/03/17 07:00:22;;;;;;;55.72;29.27;;;;;;;;;;8363189;28;20095;-77
2022/03/17 07:04:24;;;;;;;55.15;28.90;;;;;;;;;;8363549;28;20051;-77
2022/03/17 07:08:27;;;;;;;45.40;26.13;;;;;;;;;;8363532;28;20037;-76
2022/03/17 07:12:29;;;;;;;43.58;26.77;;;;;;;;;;8363506;28;20049;-77
2022/03/17 07:16:33;;;;;;;42.92;24.85;;;;;;;;;;8363724;28;20541;-78
2022/03/17 07:20:36;;;;;;;42.80;25.98;;;;;;;;;;8392240;28;20080;-78
2022/03/17 07:24:39;;;;;;;43.45;30.90;;;;;;;;;;8396875;28;20045;-78
2022/03/17 07:28:44;;;;;;;41.55;24.30;;;;;;;;;;8396434;28;20068;-78
2022/03/17 07:32:52;;;;;;;38.08;22.70;;;;;;;;;;8396656;28;20045;-76
2022/03/17 07:36:55;;;;;;;58.95;29.08;;;;;;;;;;8396749;28;20549;-77
2022/03/17 07:40:57;;;;;;;78.85;37.63;;;;;;;;;;8396533;28;20048;-76
2022/03/17 07:45:00;;;;;;;68.30;27.13;;;;;;;;;;8396448;28;20476;-77
2022/03/17 07:49:04;;;;;;;35.58;22.25;;;;;;;;;;8401015;28;20055;-78
2022/03/17 07:53:07;;;;;;;57.35;29.58;;;;;;;;;;8403282;28;20072;-77
2022/03/17 07:57:10;;;;;;;33.88;21.27;;;;;;;;;;8402240;28;20048;-76
2022/03/17 08:01:13;;;;;;;33.65;22.98;;;;;;;;;;8402137;28;20076;-77
2022/03/17 08:05:17;;;;;;;43.33;24.17;;;;;;;;;;8401874;28;20091;-77
2022/03/17 08:09:21;;;;;;;35.40;22.50;;;;;;;;;;8401786;28;20071;-78
2022/03/17 08:13:25;;;;;;;35.03;22.92;;;;;;;;;;8401861;28;20049;-78
2022/03/17 08:17:28;;;;;;;33.03;23.58;;;;;;;;;;8401660;28;20465;-77
2022/03/17 08:21:32;;;;;;;35.28;23.27;;;;;;;;;;8401761;28;20044;-77
2022/03/17 08:25:35;;;;;;;41.72;23.02;;;;;;;;;;8401855;28;20481;-78
2022/03/17 08:29:38;;;;;;;40.00;21.75;;;;;;;;;;8401283;28;20048;-77
2022/03/17 08:33:41;;;;;;;33.38;21.10;;;;;;;;;;8401754;28;20044;-77
2022/03/17 08:37:47;;;;;;;34.30;20.40;;;;;;;;;;8401747;28;20437;-77
2022/03/17 08:41:51;;;;;;;34.22;20.52;;;;;;;;;;8401058;28;20131;-77
2022/03/17 08:50:16;;;;;;;31.00;20.90;;;;;;;;;;8367527;28;20045;-77
2022/03/17 08:54:22;;;;;;;34.13;21.15;;;;;;;;;;8367164;28;20109;-77
2022/03/17 08:58:27;;;;;;;31.50;18.50;;;;;;;;;;8367091;28;20419;-78
2022/03/17 09:02:30;;;;;;;35.63;22.17;;;;;;;;;;8367055;28;20045;-77
2022/03/17 09:06:35;;;;;;;29.20;17.45;;;;;;;;;;8366887;28;20041;-77
2022/03/17 09:10:42;;;;;;;26.10;15.10;;;;;;;;;;8366671;28;20048;-77
2022/03/17 09:14:49;;;;;;;24.40;14.65;;;;;;;;;;8366879;28;20056;-77
2022/03/17 09:18:52;;;;;;;26.45;16.35;;;;;;;;;;8366399;28;20053;-77
2022/03/17 09:23:02;;;;;;;24.45;15.00;;;;;;;;;;8366879;28;20771;-78
2022/03/17 09:27:07;;;;;;;24.77;12.48;;;;;;;;;;8366485;28;20045;-77
2022/03/17 09:31:09;;;;;;;21.65;14.13;;;;;;;;;;8366111;28;20055;-77
2022/03/17 09:35:13;;;;;;;28.48;13.60;;;;;;;;;;8391183;28;20048;-78
2022/03/17 09:43:37;;;;;;;34.70;14.40;;;;;;;;;;8393306;28;20045;-77
2022/03/17 09:47:43;;;;;;;24.02;12.07;;;;;;;;;;8397745;28;20068;-78
2022/03/17 09:51:54;;;;;;;29.52;14.25;;;;;;;;;;8394445;28;20131;-78
2022/03/17 09:55:59;;;;;;;23.35;12.23;;;;;;;;;;8399167;28;20052;-77
2022/03/17 10:00:06;;;;;;;25.05;13.02;;;;;;;;;;8385737;28;20142;-78
2022/03/17 10:04:10;;;;;;;18.90;10.68;;;;;;;;;;8395000;28;20048;-79
2022/03/17 10:08:14;;;;;;;18.98;9.90;;;;;;;;;;8394972;28;20083;-77
2022/03/17 10:12:20;;;;;;;17.15;9.70;;;;;;;;;;8396500;28;20054;-77
2022/03/17 10:16:25;;;;;;;20.90;9.93;;;;;;;;;;8398002;28;20381;-77
2022/03/17 10:20:29;;;;;;;18.50;10.05;;;;;;;;;;8369654;28;20104;-77
2022/03/17 10:24:37;;;;;;;22.58;11.02;;;;;;;;;;8364705;28;20047;-77
2022/03/17 10:28:42;;;;;;;16.55;9.52;;;;;;;;;;8364288;28;20052;-77
2022/03/17 10:32:57;;;;;;;19.38;10.70;;;;;;;;;;8363331;28;20079;-77
2022/03/17 10:37:12;;;;;;;25.75;9.68;;;;;;;;;;8364419;28;20052;-77
2022/03/17 10:41:17;;;;;;;19.15;10.50;;;;;;;;;;8363759;28;20049;-77
2022/03/17 10:45:20;;;;;;;20.08;9.82;;;;;;;;;;8364383;28;20072;-77
2022/03/17 10:49:24;;;;;;;22.08;10.77;;;;;;;;;;8363810;28;20051;-76
2022/03/17 10:53:29;;;;;;;19.55;9.70;;;;;;;;;;8363975;28;20045;-77
2022/03/17 10:57:31;;;;;;;21.60;11.00;;;;;;;;;;8364185;28;20045;-77
2022/03/17 11:01:39;;;;;;;22.35;10.35;;;;;;;;;;8362180;28;20048;-77
2022/03/17 11:05:43;;;;;;;20.35;10.20;;;;;;;;;;8363756;28;20045;-76
2022/03/17 11:09:49;;;;;;;25.55;9.73;;;;;;;;;;8363568;28;20385;-77
2022/03/17 11:13:52;;;;;;;19.83;9.90;;;;;;;;;;8363314;28;20485;-78
2022/03/17 11:18:02;;;;;;;16.15;9.77;;;;;;;;;;8361670;28;20049;-76
2022/03/17 11:22:09;;;;;;;20.17;9.80;;;;;;;;;;8365067;28;20389;-77
2022/03/17 11:26:23;;;;;;;20.65;9.10;;;;;;;;;;8369402;28;20519;-77
2022/03/17 11:30:30;;;;;;;17.73;9.65;;;;;;;;;;8369690;28;20052;-77
2022/03/17 11:34:43;;;;;;;19.90;10.40;;;;;;;;;;8371372;28;20331;-76
2022/03/17 11:38:58;;;;;;;21.83;10.43;;;;;;;;;;8369714;28;20099;-77
2022/03/17 11:43:07;;;;;;;23.50;11.18;;;;;;;;;;8370049;28;20071;-77
2022/03/17 11:47:12;;;;;;;20.38;10.52;;;;;;;;;;8370036;28;20045;-77
2022/03/17 11:51:16;;;;;;;20.95;8.73;;;;;;;;;;8370247;28;20409;-77
2022/03/17 11:55:35;;;;;;;18.73;10.07;;;;;;;;;;8369686;28;20045;-76
2022/03/17 11:59:52;;;;;;;19.02;9.02;;;;;;;;;;8369697;28;20052;-76
2022/03/17 12:03:57;;;;;;;21.17;10.07;;;;;;;;;;8369235;28;20128;-76
2022/03/17 12:08:01;;;;;;;18.27;10.63;;;;;;;;;;8351139;28;20052;-77
2022/03/17 12:12:17;;;;;;;22.40;10.40;;;;;;;;;;8335499;28;20057;-77
2022/03/17 12:16:38;;;;;;;26.13;12.48;;;;;;;;;;8340469;28;20047;-76
2022/03/17 12:20:47;;;;;;;26.73;13.95;;;;;;;;;;8394482;28;20079;-77
2022/03/17 12:24:51;;;;;;;21.20;10.02;;;;;;;;;;8398437;28;20048;-77
2022/03/17 12:28:55;;;;;;;19.23;9.98;;;;;;;;;;8401906;28;20048;-76
2022/03/17 12:33:01;;;;;;;20.02;11.90;;;;;;;;;;8402204;28;20385;-76
2022/03/17 12:37:06;;;;;;;28.83;11.80;;;;;;;;;;8396351;28;20044;-77
2022/03/17 12:41:14;;;;;;;30.70;12.02;;;;;;;;;;8398981;28;20056;-77
2022/03/17 12:45:23;;;;;;;18.85;9.93;;;;;;;;;;8401037;28;20040;-76
2022/03/17 12:49:26;;;;;;;66.00;21.92;;;;;;;;;;8401126;28;20049;-77
2022/03/17 12:53:31;;;;;;;22.48;10.45;;;;;;;;;;8401096;28;20106;-78
2022/03/17 12:57:39;;;;;;;20.63;10.82;;;;;;;;;;8400943;28;20495;-76
2022/03/17 13:01:44;;;;;;;34.50;14.23;;;;;;;;;;8400190;28;20048;-77
2022/03/17 13:10:13;;;;;;;26.10;11.85;;;;;;;;;;8400315;28;20492;-77
2022/03/17 13:14:24;;;;;;;28.08;12.82;;;;;;;;;;8400073;28;20048;-76
2022/03/17 13:18:40;;;;;;;17.52;9.07;;;;;;;;;;8399486;28;20147;-77
2022/03/17 13:22:45;;;;;;;16.92;9.35;;;;;;;;;;8399810;28;20133;-77
2022/03/17 13:27:00;;;;;;;20.90;9.95;;;;;;;;;;8399728;28;20653;-77
2022/03/17 13:31:04;;;;;;;20.25;10.88;;;;;;;;;;8399503;28;20052;-76
2022/03/17 13:35:10;;;;;;;17.80;8.25;;;;;;;;;;8398998;28;20067;-76
2022/03/17 13:39:13;;;;;;;13.50;7.55;;;;;;;;;;8400201;28;20450;-76
2022/03/17 13:43:18;;;;;;;15.35;7.05;;;;;;;;;;8398839;28;20064;-77
2022/03/17 13:47:24;;;;;;;24.92;9.00;;;;;;;;;;8397730;28;20041;-77
2022/03/17 13:51:33;;;;;;;34.67;10.45;;;;;;;;;;8398814;28;20079;-76
2022/03/17 13:55:46;;;;;;;17.33;8.85;;;;;;;;;;8398284;28;20048;-76
2022/03/17 13:59:49;;;;;;;13.35;7.47;;;;;;;;;;8399248;28;20044;-77
2022/03/17 14:03:58;;;;;;;16.55;7.85;;;;;;;;;;8398071;28;20056;-77
2022/03/17 14:08:03;;;;;;;17.67;8.23;;;;;;;;;;8398092;28;20051;-75
2022/03/17 14:12:07;;;;;;;13.88;7.60;;;;;;;;;;8398353;28;20079;-77
2022/03/17 14:16:12;;;;;;;19.35;8.55;;;;;;;;;;8392463;28;20477;-76
2022/03/17 14:20:16;;;;;;;15.20;7.80;;;;;;;;;;8397138;28;20063;-77
2022/03/17 14:24:28;;;;;;;13.40;7.10;;;;;;;;;;8396364;28;20044;-76
2022/03/17 14:28:38;;;;;;;15.52;7.13;;;;;;;;;;8397641;28;20044;-76
2022/03/17 14:32:44;;;;;;;12.95;7.38;;;;;;;;;;8397519;28;20041;-77
2022/03/17 14:36:56;;;;;;;14.20;6.63;;;;;;;;;;8397606;28;20178;-77
2022/03/17 14:41:05;;;;;;;31.20;15.30;;;;;;;;;;8397611;28;20040;-75
2022/03/17 14:45:11;;;;;;;10.88;6.10;;;;;;;;;;8390709;28;20052;-77
2022/03/17 14:49:17;;;;;;;11.43;6.80;;;;;;;;;;8397654;28;20040;-77
2022/03/17 14:53:22;;;;;;;14.73;9.07;;;;;;;;;;8397533;28;20456;-77
2022/03/17 14:57:34;;;;;;;10.00;6.57;;;;;;;;;;8397281;28;20128;-77
2022/03/17 15:01:42;;;;;;;49.28;24.20;;;;;;;;;;8396791;28;20052;-77
2022/03/17 15:05:46;;;;;;;55.25;26.10;;;;;;;;;;8397027;28;20048;-75
2022/03/17 15:09:49;;;;;;;84.20;36.65;;;;;;;;;;8392228;28;20041;-77
2022/03/17 15:13:55;;;;;;;60.30;22.70;;;;;;;;;;8393646;28;20052;-76
2022/03/17 15:17:58;;;;;;;20.20;8.02;;;;;;;;;;8380014;28;20475;-76
2022/03/17 15:22:02;;;;;;;23.75;9.75;;;;;;;;;;8387288;28;20048;-77
2022/03/17 15:26:07;;;;;;;16.38;7.47;;;;;;;;;;8372417;28;20477;-76
2022/03/17 15:30:12;;;;;;;13.02;7.28;;;;;;;;;;8361451;28;20088;-76
2022/03/17 15:34:17;;;;;;;12.77;6.50;;;;;;;;;;8346813;28;20052;-76
2022/03/17 15:38:21;;;;;;;22.40;9.80;;;;;;;;;;8358074;28;20047;-76
2022/03/17 15:42:26;;;;;;;17.70;6.93;;;;;;;;;;8379007;28;20386;-77
2022/03/17 15:46:31;;;;;;;14.15;6.70;;;;;;;;;;8337528;28;20048;-77
2022/03/17 15:50:37;;;;;;;28.30;15.60;;;;;;;;;;8365015;28;20045;-77
2022/03/17 15:54:49;;;;;;;14.70;6.40;;;;;;;;;;8364045;28;20426;-76
2022/03/17 15:58:57;;;;;;;19.80;8.15;;;;;;;;;;8362668;28;20091;-77
2022/03/17 16:03:08;;;;;;;18.33;5.95;;;;;;;;;;8366483;28;20080;-78
2022/03/17 16:07:14;;;;;;;13.88;5.88;;;;;;;;;;8363195;28;20037;-75
2022/03/17 16:15:44;;;;;;;16.65;6.80;;;;;;;;;;8365495;28;20049;-77
2022/03/17 16:20:12;;;;;;;12.05;6.22;;;;;;;;;;8368767;28;20141;-74
2022/03/17 16:24:26;;;;;;;15.02;6.18;;;;;;;;;;8368357;28;20049;-77
2022/03/17 16:28:43;;;;;;;18.00;8.23;;;;;;;;;;8366386;28;20055;-77
2022/03/17 16:32:53;;;;;;;11.77;5.47;;;;;;;;;;8378613;28;20048;-78
2022/03/17 16:37:04;;;;;;;16.95;7.22;;;;;;;;;;8388593;28;20041;-78
2022/03/17 16:41:13;;;;;;;15.40;6.13;;;;;;;;;;8364999;28;20052;-76
2022/03/17 16:45:17;;;;;;;11.95;5.35;;;;;;;;;;8347379;28;20060;-77
2022/03/17 16:49:23;;;;;;;17.73;11.52;;;;;;;;;;8367315;28;20053;-77
2022/03/17 16:53:33;;;;;;;19.58;9.73;;;;;;;;;;8373263;28;20443;-77
2022/03/17 16:57:41;;;;;;;23.35;10.88;;;;;;;;;;8373957;28;20048;-76
2022/03/17 17:01:55;;;;;;;20.75;8.75;;;;;;;;;;8374577;28;20073;-76
2022/03/17 17:06:06;;;;;;;38.35;21.92;;;;;;;;;;8365505;28;20052;-77
2022/03/17 17:10:20;;;;;;;18.98;8.98;;;;;;;;;;8371561;28;20041;-76
2022/03/17 17:14:39;;;;;;;47.35;19.23;;;;;;;;;;8370638;28;20139;-77
2022/03/17 17:18:54;;;;;;;56.55;30.77;;;;;;;;;;8373516;28;20061;-77
2022/03/17 17:31:56;;;;;;;24.63;10.98;;;;;;;;;;8364720;28;20045;-77
2022/03/17 17:36:03;;;;;;;41.28;16.40;;;;;;;;;;8370659;28;20507;-76
2022/03/17 17:40:13;;;;;;;46.92;18.92;;;;;;;;;;8390739;28;20045;-76
2022/03/17 17:44:20;;;;;;;22.58;10.85;;;;;;;;;;8367326;28;20044;-77
2022/03/17 17:48:24;;;;;;;187.70;51.35;;;;;;;;;;8365310;28;20041;-77
2022/03/17 17:52:32;;;;;;;47.05;24.20;;;;;;;;;;8367106;28;20041;-78
2022/03/17 17:56:37;;;;;;;78.93;37.55;;;;;;;;;;8362552;28;20060;-76
2022/03/17 18:00:45;;;;;;;38.00;19.58;;;;;;;;;;8363747;28;20053;-76
2022/03/17 18:04:54;;;;;;;71.55;29.23;;;;;;;;;;8364367;28;20049;-75
2022/03/17 18:08:59;;;;;;;146.68;66.88;;;;;;;;;;8364232;28;20086;-77
2022/03/17 18:13:05;;;;;;;183.35;42.13;;;;;;;;;;8365531;28;20518;-77
2022/03/17 18:17:17;;;;;;;64.90;18.52;;;;;;;;;;8363197;28;20457;-77
2022/03/17 18:21:29;;;;;;;120.07;32.88;;;;;;;;;;8361081;28;20048;-76
2022/03/17 18:25:42;;;;;;;26.00;11.55;;;;;;;;;;8363298;28;20049;-77
2022/03/17 18:29:46;;;;;;;31.50;12.35;;;;;;;;;;8364758;28;20053;-77
2022/03/17 18:33:52;;;;;;;33.65;12.32;;;;;;;;;;8364097;28;20049;-77
2022/03/17 18:38:03;;;;;;;25.65;11.52;;;;;;;;;;8364002;28;20481;-77
2022/03/17 18:42:07;;;;;;;40.35;14.95;;;;;;;;;;8364370;28;20048;-76
2022/03/17 18:46:13;;;;;;;30.60;13.57;;;;;;;;;;8360855;28;20046;-75
2022/03/17 18:50:23;;;;;;;30.77;15.02;;;;;;;;;;8329944;28;20077;-75
2022/03/17 18:54:27;;;;;;;27.27;13.35;;;;;;;;;;8362121;28;20071;-77
2022/03/17 18:58:30;;;;;;;28.38;12.10;;;;;;;;;;8363178;28;20136;-77
2022/03/17 19:02:35;;;;;;;20.38;10.75;;;;;;;;;;8363474;28;20049;-77
2022/03/17 19:06:51;;;;;;;100.85;30.67;;;;;;;;;;8363137;28;20135;-76
2022/03/17 19:11:07;;;;;;;85.53;25.73;;;;;;;;;;8355614;28;20092;-77
2022/03/17 19:15:13;;;;;;;21.48;9.30;;;;;;;;;;8363073;28;20456;-77
2022/03/17 19:19:18;;;;;;;88.55;26.42;;;;;;;;;;8350464;28;20053;-77
2022/03/17 19:23:25;;;;;;;44.10;14.38;;;;;;;;;;8381371;28;20408;-77
2022/03/17 19:27:31;;;;;;;26.75;10.88;;;;;;;;;;8380808;28;20040;-77
2022/03/17 19:31:35;;;;;;;50.55;17.77;;;;;;;;;;8380253;28;20055;-77
2022/03/17 19:35:39;;;;;;;33.03;13.30;;;;;;;;;;8382354;28;20059;-77
2022/03/17 19:39:54;;;;;;;31.65;15.15;;;;;;;;;;8382719;28;20049;-77
2022/03/17 19:44:12;;;;;;;29.50;11.80;;;;;;;;;;8384122;28;20116;-77
2022/03/17 19:48:28;;;;;;;45.05;17.25;;;;;;;;;;8381370;28;20044;-77
2022/03/17 19:52:55;;;;;;;35.33;14.10;;;;;;;;;;8384602;28;20121;-76
2022/03/17 19:57:55;;;;;;;29.42;12.60;;;;;;;;;;8386903;28;20484;-76
2022/03/17 20:02:28;;;;;;;;;;;;;;;;;;8390517;28;20040;-77
2022/03/17 20:06:36;;;;;;;18.85;6.95;;;;;;;;;;8388701;28;19920;-76
2022/03/17 20:15:11;;;;;;;116.40;40.25;;;;;;;;;;8381220;28;20046;-77
2022/03/17 20:19:27;;;;;;;127.70;65.25;;;;;;;;;;8384512;28;20071;-76
2022/03/17 20:23:41;;;;;;;123.57;28.83;;;;;;;;;;8384819;28;20045;-77
2022/03/17 20:27:52;;;;;;;80.88;21.67;;;;;;;;;;8385012;28;20055;-77
2022/03/17 20:32:08;;;;;;;41.35;23.58;;;;;;;;;;8384778;28;20068;-77
2022/03/17 20:36:19;;;;;;;63.38;18.42;;;;;;;;;;8381708;28;20512;-78
2022/03/17 20:40:33;;;;;;;28.73;10.55;;;;;;;;;;8394971;28;20395;-77
2022/03/17 20:44:49;;;;;;;21.23;9.30;;;;;;;;;;8401996;28;20052;-78
2022/03/17 20:49:03;;;;;;;45.60;16.27;;;;;;;;;;8384443;28;20049;-76
2022/03/17 20:53:15;;;;;;;27.40;10.02;;;;;;;;;;8395403;28;20057;-78
2022/03/17 20:57:18;;;;;;;22.67;8.98;;;;;;;;;;8386929;28;20049;-77
2022/03/17 21:01:23;;;;;;;19.92;7.82;;;;;;;;;;8380271;28;20091;-78
2022/03/17 21:05:26;;;;;;;24.98;9.98;;;;;;;;;;8367708;28;20072;-77
2022/03/17 21:09:31;;;;;;;18.83;6.97;;;;;;;;;;8367741;28;20049;-77
2022/03/17 21:13:35;;;;;;;33.35;12.10;;;;;;;;;;8368481;28;20045;-79
2022/03/17 21:17:40;;;;;;;48.50;18.60;;;;;;;;;;8367913;28;20052;-77
2022/03/17 21:21:43;;;;;;;19.05;8.70;;;;;;;;;;8367837;28;20052;-77
2022/03/17 21:25:48;;;;;;;21.00;8.90;;;;;;;;;;8367176;28;20060;-77
2022/03/17 21:29:52;;;;;;;23.23;9.45;;;;;;;;;;8366739;28;20053;-77
2022/03/17 21:33:57;;;;;;;19.67;9.00;;;;;;;;;;8366524;28;20136;-76
2022/03/17 21:38:02;;;;;;;18.35;7.70;;;;;;;;;;8349397;28;20067;-77
2022/03/17 21:42:11;;;;;;;20.27;7.85;;;;;;;;;;8366418;28;20044;-76
2022/03/17 21:46:16;;;;;;;20.73;8.57;;;;;;;;;;8367306;28;20048;-77
2022/03/17 21:50:19;;;;;;;15.02;6.88;;;;;;;;;;8367062;28;20072;-77
2022/03/17 21:54:22;;;;;;;15.30;6.95;;;;;;;;;;8367049;28;20496;-77
2022/03/17 21:58:27;;;;;;;19.23;7.88;;;;;;;;;;8366516;28;20041;-77
2022/03/17 22:02:30;;;;;;;22.65;10.13;;;;;;;;;;8366164;28;20099;-77
2022/03/17 22:06:34;;;;;;;35.45;17.17;;;;;;;;;;8365261;28;20381;-77
2022/03/17 22:10:38;;;;;;;27.70;11.05;;;;;;;;;;8365554;28;20044;-77
2022/03/17 22:14:44;;;;;;;32.53;16.63;;;;;;;;;;8365413;28;20052;-77
2022/03/17 22:18:47;;;;;;;30.10;18.10;;;;;;;;;;8365114;28;20087;-78
2022/03/17 22:22:49;;;;;;;20.23;8.50;;;;;;;;;;8365479;28;20045;-77
2022/03/17 22:26:52;;;;;;;17.85;7.82;;;;;;;;;;8364893;28;20053;-78
2022/03/17 22:30:57;;;;;;;24.27;12.82;;;;;;;;;;8364747;28;20049;-77
2022/03/17 22:35:00;;;;;;;22.02;11.15;;;;;;;;;;8364886;28;20099;-77
2022/03/17 22:39:03;;;;;;;27.90;12.82;;;;;;;;;;8364697;28;20049;-78
2022/03/17 22:43:05;;;;;;;117.60;34.88;;;;;;;;;;8379613;28;20048;-77
2022/03/17 22:47:10;;;;;;;26.42;12.57;;;;;;;;;;8397550;28;20090;-75
2022/03/17 22:51:13;;;;;;;19.70;8.73;;;;;;;;;;8398167;28;20480;-77
2022/03/17 22:55:17;;;;;;;22.30;8.07;;;;;;;;;;8396867;28;20078;-77
2022/03/17 22:59:19;;;;;;;20.80;9.95;;;;;;;;;;8397035;28;20139;-76
2022/03/17 23:03:23;;;;;;;23.25;13.23;;;;;;;;;;8397666;28;20048;-76
2022/03/17 23:07:26;;;;;;;20.83;9.77;;;;;;;;;;8397446;28;20045;-77
2022/03/17 23:11:29;;;;;;;21.38;9.52;;;;;;;;;;8396915;28;20044;-77
2022/03/17 23:15:31;;;;;;;22.27;8.63;;;;;;;;;;8397266;28;20058;-76
2022/03/17 23:19:36;;;;;;;19.25;8.95;;;;;;;;;;8397105;28;20522;-77
2022/03/17 23:23:39;;;;;;;16.92;7.82;;;;;;;;;;8397028;28;20036;-77
2022/03/17 23:27:41;;;;;;;23.58;8.35;;;;;;;;;;8396784;28;20128;-78
2022/03/17 23:31:45;;;;;;;22.20;8.93;;;;;;;;;;8396707;28;20044;-77
2022/03/17 23:35:51;;;;;;;16.83;6.57;;;;;;;;;;8397270;28;20067;-77
2022/03/17 23:39:54;;;;;;;16.65;6.60;;;;;;;;;;8396084;28;20044;-77
2022/03/17 23:44:02;;;;;;;17.48;6.35;;;;;;;;;;8388481;28;20064;-75
2022/03/17 23:48:08;;;;;;;15.40;7.28;;;;;;;;;;8387245;28;20063;-76
2022/03/17 23:52:30;;;;;;;13.95;6.30;;;;;;;;;;8386940;28;20131;-78
2022/03/17 23:56:36;;;;;;;15.50;6.70;;;;;;;;;;8395741;28;20059;-76
